sensor_id;sensor_type;location;lat;lon;timestamp;P1;durP1;ratioP1;P2;durP2;ratioP2
3085;SDS011;52812;48.960;9.108;2022-11-21T00:00:38;1.83;;;1.63;;
3085;SDS011;52812;48.960;9.108;2022-11-21T00:03:04;2.33;;;1.60;;
3085;SDS011;52812;48.960;9.108;2022-11-21T00:05:30;1.40;;;1.30;;
3085;SDS011;52812;48.960;9.108;2022-11-21T00:07:57;2.87;;;1.30;;
3085;SDS011;52812;48.960;9.108;2022-11-21T00:10:23;2.40;;;1.30;;
3085;SDS011;52812;48.960;9.108;2022-11-21T00:12:53;3.40;;;1.27;;
3085;SDS011;52812;48.960;9.108;2022-11-21T00:15:19;2.60;;;1.37;;
3085;SDS011;52812;48.960;9.108;2022-11-21T00:17:45;5.40;;;2.17;;
3085;SDS011;52812;48.960;9.108;2022-11-21T00:20:11;1.30;;;1.20;;
3085;SDS011;52812;48.960;9.108;2022-11-21T00:22:36;1.90;;;1.30;;
3085;SDS011;52812;48.960;9.108;2022-11-21T00:25:02;2.33;;;1.10;;
3085;SDS011;52812;48.960;9.108;2022-11-21T00:27:28;1.47;;;1.27;;
3085;SDS011;52812;48.960;9.108;2022-11-21T00:29:53;2.63;;;1.23;;
3085;SDS011;52812;48.960;9.108;2022-11-21T00:32:19;1.20;;;1.10;;
3085;SDS011;52812;48.960;9.108;2022-11-21T00:34:44;1.93;;;1.53;;
3085;SDS011;52812;48.960;9.108;2022-11-21T00:37:10;1.23;;;1.13;;
3085;SDS011;52812;48.960;9.108;2022-11-21T00:39:35;1.60;;;1.20;;
3085;SDS011;52812;48.960;9.108;2022-11-21T00:42:01;2.50;;;1.03;;
3085;SDS011;52812;48.960;9.108;2022-11-21T00:44:26;2.37;;;1.30;;
3085;SDS011;52812;48.960;9.108;2022-11-21T00:46:52;1.83;;;1.30;;
3085;SDS011;52812;48.960;9.108;2022-11-21T00:49:17;2.30;;;1.30;;
3085;SDS011;52812;48.960;9.108;2022-11-21T00:51:43;2.20;;;1.20;;
3085;SDS011;52812;48.960;9.108;2022-11-21T00:54:08;1.27;;;1.17;;
3085;SDS011;52812;48.960;9.108;2022-11-21T00:56:34;2.03;;;1.40;;
3085;SDS011;52812;48.960;9.108;2022-11-21T00:58:59;1.40;;;1.20;;
3085;SDS011;52812;48.960;9.108;2022-11-21T01:01:25;2.03;;;1.30;;
3085;SDS011;52812;48.960;9.108;2022-11-21T01:03:51;1.30;;;1.10;;
3085;SDS011;52812;48.960;9.108;2022-11-21T01:06:16;3.20;;;1.50;;
3085;SDS011;52812;48.960;9.108;2022-11-21T01:08:42;2.20;;;1.20;;
3085;SDS011;52812;48.960;9.108;2022-11-21T01:11:10;2.83;;;1.63;;
3085;SDS011;52812;48.960;9.108;2022-11-21T01:13:40;2.07;;;1.40;;
3085;SDS011;52812;48.960;9.108;2022-11-21T01:16:08;3.37;;;1.50;;
3085;SDS011;52812;48.960;9.108;2022-11-21T01:18:35;2.77;;;1.30;;
3085;SDS011;52812;48.960;9.108;2022-11-21T01:21:02;2.17;;;1.30;;
3085;SDS011;52812;48.960;9.108;2022-11-21T01:23:32;1.63;;;1.20;;
3085;SDS011;52812;48.960;9.108;2022-11-21T01:26:06;2.20;;;1.40;;
3085;SDS011;52812;48.960;9.108;2022-11-21T01:28:34;1.67;;;1.20;;
3085;SDS011;52812;48.960;9.108;2022-11-21T01:31:06;8.43;;;1.30;;
3085;SDS011;52812;48.960;9.108;2022-11-21T01:33:32;2.87;;;1.20;;
3085;SDS011;52812;48.960;9.108;2022-11-21T01:36:15;1.50;;;1.40;;
3085;SDS011;52812;48.960;9.108;2022-11-21T01:38:44;4.17;;;1.80;;
3085;SDS011;52812;48.960;9.108;2022-11-21T01:41:12;5.20;;;2.23;;
3085;SDS011;52812;48.960;9.108;2022-11-21T01:43:39;2.87;;;2.10;;
3085;SDS011;52812;48.960;9.108;2022-11-21T01:48:35;7.70;;;2.40;;
3085;SDS011;52812;48.960;9.108;2022-11-21T01:51:06;5.50;;;1.80;;
3085;SDS011;52812;48.960;9.108;2022-11-21T01:53:51;4.67;;;2.00;;
3085;SDS011;52812;48.960;9.108;2022-11-21T01:56:22;3.93;;;1.67;;
3085;SDS011;52812;48.960;9.108;2022-11-21T01:58:49;3.47;;;1.60;;
3085;SDS011;52812;48.960;9.108;2022-11-21T02:01:18;2.50;;;1.50;;
3085;SDS011;52812;48.960;9.108;2022-11-21T02:03:43;3.97;;;1.53;;
3085;SDS011;52812;48.960;9.108;2022-11-21T02:06:11;4.07;;;1.77;;
3085;SDS011;52812;48.960;9.108;2022-11-21T02:08:37;2.60;;;1.30;;
3085;SDS011;52812;48.960;9.108;2022-11-21T02:13:36;2.13;;;1.50;;
3085;SDS011;52812;48.960;9.108;2022-11-21T02:16:01;3.30;;;1.73;;
3085;SDS011;52812;48.960;9.108;2022-11-21T02:18:27;3.13;;;1.47;;
3085;SDS011;52812;48.960;9.108;2022-11-21T02:20:55;2.10;;;1.40;;
3085;SDS011;52812;48.960;9.108;2022-11-21T02:26:08;1.20;;;1.10;;
3085;SDS011;52812;48.960;9.108;2022-11-21T02:28:34;2.70;;;1.80;;
3085;SDS011;52812;48.960;9.108;2022-11-21T02:31:00;2.17;;;1.10;;
3085;SDS011;52812;48.960;9.108;2022-11-21T02:33:26;1.30;;;1.20;;
3085;SDS011;52812;48.960;9.108;2022-11-21T02:35:55;1.73;;;1.40;;
3085;SDS011;52812;48.960;9.108;2022-11-21T02:38:29;2.00;;;1.10;;
3085;SDS011;52812;48.960;9.108;2022-11-21T02:43:32;3.57;;;1.50;;
3085;SDS011;52812;48.960;9.108;2022-11-21T02:46:06;1.97;;;1.00;;
3085;SDS011;52812;48.960;9.108;2022-11-21T02:48:32;2.27;;;1.10;;
3085;SDS011;52812;48.960;9.108;2022-11-21T02:50:58;1.67;;;1.10;;
3085;SDS011;52812;48.960;9.108;2022-11-21T02:53:24;1.33;;;1.10;;
3085;SDS011;52812;48.960;9.108;2022-11-21T02:55:49;3.00;;;1.40;;
3085;SDS011;52812;48.960;9.108;2022-11-21T02:58:15;1.30;;;1.10;;
3085;SDS011;52812;48.960;9.108;2022-11-21T03:00:41;1.13;;;1.00;;
3085;SDS011;52812;48.960;9.108;2022-11-21T03:03:07;1.10;;;1.00;;
3085;SDS011;52812;48.960;9.108;2022-11-21T03:05:33;1.60;;;1.17;;
3085;SDS011;52812;48.960;9.108;2022-11-21T03:07:59;1.77;;;1.00;;
3085;SDS011;52812;48.960;9.108;2022-11-21T03:10:25;1.67;;;1.10;;
3085;SDS011;52812;48.960;9.108;2022-11-21T03:12:51;2.27;;;1.20;;
3085;SDS011;52812;48.960;9.108;2022-11-21T03:15:25;2.20;;;1.20;;
3085;SDS011;52812;48.960;9.108;2022-11-21T03:17:52;1.13;;;1.03;;
3085;SDS011;52812;48.960;9.108;2022-11-21T03:20:18;3.43;;;1.13;;
3085;SDS011;52812;48.960;9.108;2022-11-21T03:22:44;1.23;;;1.13;;
3085;SDS011;52812;48.960;9.108;2022-11-21T03:25:09;1.13;;;1.03;;
3085;SDS011;52812;48.960;9.108;2022-11-21T03:27:35;1.40;;;1.30;;
3085;SDS011;52812;48.960;9.108;2022-11-21T03:30:00;2.07;;;1.10;;
3085;SDS011;52812;48.960;9.108;2022-11-21T03:32:26;2.17;;;1.30;;
3085;SDS011;52812;48.960;9.108;2022-11-21T03:34:51;1.17;;;1.03;;
3085;SDS011;52812;48.960;9.108;2022-11-21T03:37:17;1.10;;;1.00;;
3085;SDS011;52812;48.960;9.108;2022-11-21T03:39:43;1.13;;;1.03;;
3085;SDS011;52812;48.960;9.108;2022-11-21T03:42:08;1.40;;;1.20;;
3085;SDS011;52812;48.960;9.108;2022-11-21T03:44:34;2.73;;;1.40;;
3085;SDS011;52812;48.960;9.108;2022-11-21T03:46:59;2.07;;;1.30;;
3085;SDS011;52812;48.960;9.108;2022-11-21T03:49:25;1.77;;;1.20;;
3085;SDS011;52812;48.960;9.108;2022-11-21T03:51:51;1.47;;;1.20;;
3085;SDS011;52812;48.960;9.108;2022-11-21T03:54:16;3.03;;;1.80;;
3085;SDS011;52812;48.960;9.108;2022-11-21T03:56:42;1.50;;;1.40;;
3085;SDS011;52812;48.960;9.108;2022-11-21T03:59:07;1.60;;;1.13;;
3085;SDS011;52812;48.960;9.108;2022-11-21T04:01:33;2.13;;;1.40;;
3085;SDS011;52812;48.960;9.108;2022-11-21T04:03:59;1.43;;;1.10;;
3085;SDS011;52812;48.960;9.108;2022-11-21T04:06:24;1.57;;;1.30;;
3085;SDS011;52812;48.960;9.108;2022-11-21T04:08:50;3.10;;;1.33;;
3085;SDS011;52812;48.960;9.108;2022-11-21T04:11:16;1.60;;;1.30;;
3085;SDS011;52812;48.960;9.108;2022-11-21T04:13:41;1.67;;;1.30;;
3085;SDS011;52812;48.960;9.108;2022-11-21T04:16:07;1.10;;;1.00;;
3085;SDS011;52812;48.960;9.108;2022-11-21T04:18:33;1.90;;;1.10;;
3085;SDS011;52812;48.960;9.108;2022-11-21T04:21:03;2.37;;;1.10;;
3085;SDS011;52812;48.960;9.108;2022-11-21T04:23:30;1.20;;;1.10;;
3085;SDS011;52812;48.960;9.108;2022-11-21T04:25:56;1.70;;;1.60;;
3085;SDS011;52812;48.960;9.108;2022-11-21T04:28:22;2.83;;;1.30;;
3085;SDS011;52812;48.960;9.108;2022-11-21T04:30:48;1.40;;;1.20;;
3085;SDS011;52812;48.960;9.108;2022-11-21T04:33:14;1.43;;;1.33;;
3085;SDS011;52812;48.960;9.108;2022-11-21T04:35:44;1.33;;;1.13;;
3085;SDS011;52812;48.960;9.108;2022-11-21T04:38:10;2.50;;;1.50;;
3085;SDS011;52812;48.960;9.108;2022-11-21T04:40:37;2.70;;;1.20;;
3085;SDS011;52812;48.960;9.108;2022-11-21T04:43:03;1.40;;;1.20;;
3085;SDS011;52812;48.960;9.108;2022-11-21T04:45:29;1.37;;;1.23;;
3085;SDS011;52812;48.960;9.108;2022-11-21T04:47:54;1.60;;;1.50;;
3085;SDS011;52812;48.960;9.108;2022-11-21T04:50:20;2.30;;;1.20;;
3085;SDS011;52812;48.960;9.108;2022-11-21T04:52:49;2.30;;;1.70;;
3085;SDS011;52812;48.960;9.108;2022-11-21T04:55:19;3.43;;;1.60;;
3085;SDS011;52812;48.960;9.108;2022-11-21T04:57:46;2.00;;;1.80;;
3085;SDS011;52812;48.960;9.108;2022-11-21T05:00:13;2.30;;;1.67;;
3085;SDS011;52812;48.960;9.108;2022-11-21T05:02:39;4.27;;;1.90;;
3085;SDS011;52812;48.960;9.108;2022-11-21T05:05:05;2.53;;;1.90;;
3085;SDS011;52812;48.960;9.108;2022-11-21T05:07:31;2.80;;;1.90;;
3085;SDS011;52812;48.960;9.108;2022-11-21T05:09:56;1.87;;;1.77;;
3085;SDS011;52812;48.960;9.108;2022-11-21T05:12:22;2.77;;;2.00;;
3085;SDS011;52812;48.960;9.108;2022-11-21T05:15:06;3.60;;;1.60;;
3085;SDS011;52812;48.960;9.108;2022-11-21T05:17:32;2.93;;;1.90;;
3085;SDS011;52812;48.960;9.108;2022-11-21T05:19:58;4.13;;;2.00;;
3085;SDS011;52812;48.960;9.108;2022-11-21T05:22:23;2.93;;;2.10;;
3085;SDS011;52812;48.960;9.108;2022-11-21T05:24:49;5.53;;;1.97;;
3085;SDS011;52812;48.960;9.108;2022-11-21T05:27:14;3.43;;;2.07;;
3085;SDS011;52812;48.960;9.108;2022-11-21T05:29:40;5.00;;;2.40;;
3085;SDS011;52812;48.960;9.108;2022-11-21T05:32:06;6.10;;;2.60;;
3085;SDS011;52812;48.960;9.108;2022-11-21T05:34:31;3.43;;;2.23;;
3085;SDS011;52812;48.960;9.108;2022-11-21T05:36:57;5.17;;;2.43;;
3085;SDS011;52812;48.960;9.108;2022-11-21T05:39:23;2.93;;;2.50;;
3085;SDS011;52812;48.960;9.108;2022-11-21T05:41:48;3.23;;;2.10;;
3085;SDS011;52812;48.960;9.108;2022-11-21T05:44:14;7.83;;;2.37;;
3085;SDS011;52812;48.960;9.108;2022-11-21T05:46:40;6.60;;;2.40;;
3085;SDS011;52812;48.960;9.108;2022-11-21T05:49:07;3.27;;;2.43;;
3085;SDS011;52812;48.960;9.108;2022-11-21T05:51:32;6.03;;;2.33;;
3085;SDS011;52812;48.960;9.108;2022-11-21T05:53:58;5.77;;;2.70;;
3085;SDS011;52812;48.960;9.108;2022-11-21T05:56:24;7.80;;;3.00;;
3085;SDS011;52812;48.960;9.108;2022-11-21T05:58:49;6.13;;;3.63;;
3085;SDS011;52812;48.960;9.108;2022-11-21T06:01:15;8.70;;;4.47;;
3085;SDS011;52812;48.960;9.108;2022-11-21T06:04:01;6.20;;;4.63;;
3085;SDS011;52812;48.960;9.108;2022-11-21T06:06:26;7.20;;;3.40;;
3085;SDS011;52812;48.960;9.108;2022-11-21T06:08:52;3.07;;;2.60;;
3085;SDS011;52812;48.960;9.108;2022-11-21T06:11:18;5.87;;;2.80;;
3085;SDS011;52812;48.960;9.108;2022-11-21T06:13:43;3.60;;;2.83;;
3085;SDS011;52812;48.960;9.108;2022-11-21T06:16:10;5.20;;;2.60;;
3085;SDS011;52812;48.960;9.108;2022-11-21T06:18:38;10.63;;;3.40;;
3085;SDS011;52812;48.960;9.108;2022-11-21T06:21:11;5.23;;;2.83;;
3085;SDS011;52812;48.960;9.108;2022-11-21T06:23:39;6.77;;;4.03;;
3085;SDS011;52812;48.960;9.108;2022-11-21T06:26:05;9.23;;;3.60;;
3085;SDS011;52812;48.960;9.108;2022-11-21T06:28:33;6.07;;;2.90;;
3085;SDS011;52812;48.960;9.108;2022-11-21T06:33:29;5.50;;;3.37;;
3085;SDS011;52812;48.960;9.108;2022-11-21T06:35:55;4.73;;;3.53;;
3085;SDS011;52812;48.960;9.108;2022-11-21T06:38:21;6.83;;;3.00;;
3085;SDS011;52812;48.960;9.108;2022-11-21T06:40:46;5.40;;;3.03;;
3085;SDS011;52812;48.960;9.108;2022-11-21T06:43:12;9.30;;;3.50;;
3085;SDS011;52812;48.960;9.108;2022-11-21T06:45:37;5.47;;;3.03;;
3085;SDS011;52812;48.960;9.108;2022-11-21T06:48:03;5.47;;;3.60;;
3085;SDS011;52812;48.960;9.108;2022-11-21T06:50:29;10.80;;;3.00;;
3085;SDS011;52812;48.960;9.108;2022-11-21T06:52:58;6.90;;;3.10;;
3085;SDS011;52812;48.960;9.108;2022-11-21T06:55:24;7.53;;;3.70;;
3085;SDS011;52812;48.960;9.108;2022-11-21T06:57:52;5.20;;;3.30;;
3085;SDS011;52812;48.960;9.108;2022-11-21T07:00:18;5.53;;;3.33;;
3085;SDS011;52812;48.960;9.108;2022-11-21T07:02:45;7.83;;;3.23;;
3085;SDS011;52812;48.960;9.108;2022-11-21T07:05:10;7.53;;;3.43;;
3085;SDS011;52812;48.960;9.108;2022-11-21T07:07:36;6.60;;;3.20;;
3085;SDS011;52812;48.960;9.108;2022-11-21T07:10:02;4.70;;;2.60;;
3085;SDS011;52812;48.960;9.108;2022-11-21T07:12:27;5.37;;;2.80;;
3085;SDS011;52812;48.960;9.108;2022-11-21T07:15:11;6.63;;;2.80;;
3085;SDS011;52812;48.960;9.108;2022-11-21T07:17:37;8.13;;;3.23;;
3085;SDS011;52812;48.960;9.108;2022-11-21T07:20:03;6.17;;;2.97;;
3085;SDS011;52812;48.960;9.108;2022-11-21T07:22:29;4.20;;;2.87;;
3085;SDS011;52812;48.960;9.108;2022-11-21T07:24:55;7.70;;;2.97;;
3085;SDS011;52812;48.960;9.108;2022-11-21T07:27:20;4.37;;;3.40;;
3085;SDS011;52812;48.960;9.108;2022-11-21T07:29:46;7.10;;;3.00;;
3085;SDS011;52812;48.960;9.108;2022-11-21T07:32:11;8.07;;;3.07;;
3085;SDS011;52812;48.960;9.108;2022-11-21T07:34:37;7.33;;;3.33;;
3085;SDS011;52812;48.960;9.108;2022-11-21T07:37:02;8.50;;;3.40;;
3085;SDS011;52812;48.960;9.108;2022-11-21T07:39:28;6.17;;;3.27;;
3085;SDS011;52812;48.960;9.108;2022-11-21T07:41:54;6.40;;;3.07;;
3085;SDS011;52812;48.960;9.108;2022-11-21T07:44:19;7.63;;;3.40;;
3085;SDS011;52812;48.960;9.108;2022-11-21T07:46:45;9.83;;;3.67;;
3085;SDS011;52812;48.960;9.108;2022-11-21T07:49:10;4.73;;;2.70;;
3085;SDS011;52812;48.960;9.108;2022-11-21T07:51:36;5.50;;;2.80;;
3085;SDS011;52812;48.960;9.108;2022-11-21T07:54:02;8.40;;;3.53;;
3085;SDS011;52812;48.960;9.108;2022-11-21T07:56:27;4.00;;;2.80;;
3085;SDS011;52812;48.960;9.108;2022-11-21T07:58:53;5.07;;;2.70;;
3085;SDS011;52812;48.960;9.108;2022-11-21T08:01:18;7.50;;;2.80;;
3085;SDS011;52812;48.960;9.108;2022-11-21T08:03:44;4.30;;;2.87;;
3085;SDS011;52812;48.960;9.108;2022-11-21T08:06:09;5.07;;;2.60;;
3085;SDS011;52812;48.960;9.108;2022-11-21T08:08:37;4.90;;;3.33;;
3085;SDS011;52812;48.960;9.108;2022-11-21T08:11:03;5.27;;;2.83;;
3085;SDS011;52812;48.960;9.108;2022-11-21T08:13:29;4.47;;;2.70;;
3085;SDS011;52812;48.960;9.108;2022-11-21T08:15:55;4.97;;;2.90;;
3085;SDS011;52812;48.960;9.108;2022-11-21T08:18:20;5.00;;;3.00;;
3085;SDS011;52812;48.960;9.108;2022-11-21T08:20:46;6.57;;;2.90;;
3085;SDS011;52812;48.960;9.108;2022-11-21T08:23:11;3.97;;;2.40;;
3085;SDS011;52812;48.960;9.108;2022-11-21T08:25:37;4.87;;;2.53;;
3085;SDS011;52812;48.960;9.108;2022-11-21T08:28:04;6.60;;;3.00;;
3085;SDS011;52812;48.960;9.108;2022-11-21T08:30:30;9.03;;;2.67;;
3085;SDS011;52812;48.960;9.108;2022-11-21T08:32:56;4.80;;;2.60;;
3085;SDS011;52812;48.960;9.108;2022-11-21T08:35:23;4.37;;;2.63;;
3085;SDS011;52812;48.960;9.108;2022-11-21T08:37:59;6.83;;;2.70;;
3085;SDS011;52812;48.960;9.108;2022-11-21T08:40:26;8.33;;;3.10;;
3085;SDS011;52812;48.960;9.108;2022-11-21T08:43:05;7.47;;;2.67;;
3085;SDS011;52812;48.960;9.108;2022-11-21T08:45:33;6.13;;;2.70;;
3085;SDS011;52812;48.960;9.108;2022-11-21T08:47:59;6.90;;;2.57;;
3085;SDS011;52812;48.960;9.108;2022-11-21T08:50:25;11.07;;;5.20;;
3085;SDS011;52812;48.960;9.108;2022-11-21T08:52:52;6.93;;;4.00;;
3085;SDS011;52812;48.960;9.108;2022-11-21T08:55:22;5.77;;;2.70;;
3085;SDS011;52812;48.960;9.108;2022-11-21T08:57:48;8.30;;;3.43;;
3085;SDS011;52812;48.960;9.108;2022-11-21T09:00:14;5.43;;;3.30;;
3085;SDS011;52812;48.960;9.108;2022-11-21T09:02:40;10.13;;;3.63;;
3085;SDS011;52812;48.960;9.108;2022-11-21T09:05:06;7.17;;;2.60;;
3085;SDS011;52812;48.960;9.108;2022-11-21T09:07:32;7.93;;;2.60;;
3085;SDS011;52812;48.960;9.108;2022-11-21T09:09:57;11.00;;;4.20;;
3085;SDS011;52812;48.960;9.108;2022-11-21T09:12:23;6.40;;;2.70;;
3085;SDS011;52812;48.960;9.108;2022-11-21T09:14:48;6.67;;;2.70;;
3085;SDS011;52812;48.960;9.108;2022-11-21T09:17:32;3.50;;;2.23;;
3085;SDS011;52812;48.960;9.108;2022-11-21T09:20:17;4.60;;;2.53;;
3085;SDS011;52812;48.960;9.108;2022-11-21T09:22:42;4.00;;;2.30;;
3085;SDS011;52812;48.960;9.108;2022-11-21T09:25:08;5.90;;;3.00;;
3085;SDS011;52812;48.960;9.108;2022-11-21T09:27:33;3.07;;;2.50;;
3085;SDS011;52812;48.960;9.108;2022-11-21T09:29:59;6.07;;;2.30;;
3085;SDS011;52812;48.960;9.108;2022-11-21T09:32:24;7.80;;;2.30;;
3085;SDS011;52812;48.960;9.108;2022-11-21T09:34:50;4.73;;;2.47;;
3085;SDS011;52812;48.960;9.108;2022-11-21T09:37:15;6.00;;;2.40;;
3085;SDS011;52812;48.960;9.108;2022-11-21T09:39:41;3.57;;;2.60;;
3085;SDS011;52812;48.960;9.108;2022-11-21T09:42:42;6.00;;;2.50;;
3085;SDS011;52812;48.960;9.108;2022-11-21T09:45:22;4.67;;;2.30;;
3085;SDS011;52812;48.960;9.108;2022-11-21T09:47:52;5.90;;;2.83;;
3085;SDS011;52812;48.960;9.108;2022-11-21T09:50:35;5.47;;;2.80;;
3085;SDS011;52812;48.960;9.108;2022-11-21T09:53:05;7.50;;;2.90;;
3085;SDS011;52812;48.960;9.108;2022-11-21T09:55:43;4.00;;;2.27;;
3085;SDS011;52812;48.960;9.108;2022-11-21T09:58:39;7.67;;;2.20;;
3085;SDS011;52812;48.960;9.108;2022-11-21T10:01:24;4.73;;;1.87;;
3085;SDS011;52812;48.960;9.108;2022-11-21T10:03:52;6.23;;;2.43;;
3085;SDS011;52812;48.960;9.108;2022-11-21T10:06:19;5.53;;;2.27;;
3085;SDS011;52812;48.960;9.108;2022-11-21T10:14:04;2.87;;;1.90;;
3085;SDS011;52812;48.960;9.108;2022-11-21T10:19:21;8.70;;;2.77;;
3085;SDS011;52812;48.960;9.108;2022-11-21T10:22:25;2.67;;;1.97;;
3085;SDS011;52812;48.960;9.108;2022-11-21T10:24:55;4.27;;;1.93;;
3085;SDS011;52812;48.960;9.108;2022-11-21T10:27:30;4.43;;;2.10;;
3085;SDS011;52812;48.960;9.108;2022-11-21T10:30:16;6.23;;;2.00;;
3085;SDS011;52812;48.960;9.108;2022-11-21T10:32:45;5.70;;;1.90;;
3085;SDS011;52812;48.960;9.108;2022-11-21T10:35:14;3.93;;;2.37;;
3085;SDS011;52812;48.960;9.108;2022-11-21T10:37:50;3.37;;;1.80;;
3085;SDS011;52812;48.960;9.108;2022-11-21T10:40:19;4.50;;;2.13;;
3085;SDS011;52812;48.960;9.108;2022-11-21T10:42:54;3.80;;;2.23;;
3085;SDS011;52812;48.960;9.108;2022-11-21T10:45:24;3.63;;;2.27;;
3085;SDS011;52812;48.960;9.108;2022-11-21T10:47:50;3.50;;;2.13;;
3085;SDS011;52812;48.960;9.108;2022-11-21T10:50:19;5.80;;;2.70;;
3085;SDS011;52812;48.960;9.108;2022-11-21T10:55:24;4.43;;;2.37;;
3085;SDS011;52812;48.960;9.108;2022-11-21T10:57:50;3.50;;;2.10;;
3085;SDS011;52812;48.960;9.108;2022-11-21T11:05:20;2.50;;;1.70;;
3085;SDS011;52812;48.960;9.108;2022-11-21T11:08:00;3.97;;;2.10;;
3085;SDS011;52812;48.960;9.108;2022-11-21T11:10:31;3.53;;;1.80;;
3085;SDS011;52812;48.960;9.108;2022-11-21T11:12:59;5.10;;;1.80;;
3085;SDS011;52812;48.960;9.108;2022-11-21T11:15:54;3.53;;;2.00;;
3085;SDS011;52812;48.960;9.108;2022-11-21T11:18:38;4.60;;;2.37;;
3085;SDS011;52812;48.960;9.108;2022-11-21T11:21:20;3.50;;;2.17;;
3085;SDS011;52812;48.960;9.108;2022-11-21T11:23:51;4.07;;;2.00;;
3085;SDS011;52812;48.960;9.108;2022-11-21T11:26:19;8.23;;;2.70;;
3085;SDS011;52812;48.960;9.108;2022-11-21T11:28:47;4.70;;;2.23;;
3085;SDS011;52812;48.960;9.108;2022-11-21T11:31:13;5.30;;;2.70;;
3085;SDS011;52812;48.960;9.108;2022-11-21T11:33:40;3.77;;;2.20;;
3085;SDS011;52812;48.960;9.108;2022-11-21T11:36:14;3.97;;;2.40;;
3085;SDS011;52812;48.960;9.108;2022-11-21T11:38:52;3.70;;;1.90;;
3085;SDS011;52812;48.960;9.108;2022-11-21T11:44:32;8.30;;;2.43;;
3085;SDS011;52812;48.960;9.108;2022-11-21T11:47:28;4.80;;;1.90;;
3085;SDS011;52812;48.960;9.108;2022-11-21T11:55:35;4.53;;;2.13;;
3085;SDS011;52812;48.960;9.108;2022-11-21T12:04:23;6.30;;;2.10;;
3085;SDS011;52812;48.960;9.108;2022-11-21T12:34:26;4.00;;;2.00;;
3085;SDS011;52812;48.960;9.108;2022-11-21T12:42:15;5.80;;;2.07;;
3085;SDS011;52812;48.960;9.108;2022-11-21T12:45:09;3.33;;;2.00;;
3085;SDS011;52812;48.960;9.108;2022-11-21T12:56:53;3.47;;;2.27;;
3085;SDS011;52812;48.960;9.108;2022-11-21T13:02:26;4.00;;;2.40;;
3085;SDS011;52812;48.960;9.108;2022-11-21T13:04:56;2.90;;;2.20;;
3085;SDS011;52812;48.960;9.108;2022-11-21T13:07:24;4.27;;;2.70;;
3085;SDS011;52812;48.960;9.108;2022-11-21T13:09:53;4.60;;;2.00;;
3085;SDS011;52812;48.960;9.108;2022-11-21T13:15:19;3.10;;;1.80;;
3085;SDS011;52812;48.960;9.108;2022-11-21T13:20:37;3.97;;;1.67;;
3085;SDS011;52812;48.960;9.108;2022-11-21T13:23:33;5.07;;;1.73;;
3085;SDS011;52812;48.960;9.108;2022-11-21T13:28:49;3.37;;;1.90;;
3085;SDS011;52812;48.960;9.108;2022-11-21T13:31:41;4.17;;;2.07;;
3085;SDS011;52812;48.960;9.108;2022-11-21T13:36:51;4.17;;;2.20;;
3085;SDS011;52812;48.960;9.108;2022-11-21T13:52:10;2.93;;;2.37;;
3085;SDS011;52812;48.960;9.108;2022-11-21T13:57:46;4.93;;;2.33;;
3085;SDS011;52812;48.960;9.108;2022-11-21T14:00:31;6.33;;;2.10;;
3085;SDS011;52812;48.960;9.108;2022-11-21T14:03:45;5.17;;;2.40;;
3085;SDS011;52812;48.960;9.108;2022-11-21T14:14:26;4.97;;;2.27;;
3085;SDS011;52812;48.960;9.108;2022-11-21T14:17:13;4.47;;;2.27;;
3085;SDS011;52812;48.960;9.108;2022-11-21T14:19:48;4.40;;;2.33;;
3085;SDS011;52812;48.960;9.108;2022-11-21T14:22:30;4.30;;;2.43;;
3085;SDS011;52812;48.960;9.108;2022-11-21T14:25:06;4.37;;;2.07;;
3085;SDS011;52812;48.960;9.108;2022-11-21T14:27:34;3.10;;;2.20;;
3085;SDS011;52812;48.960;9.108;2022-11-21T14:30:03;3.00;;;2.03;;
3085;SDS011;52812;48.960;9.108;2022-11-21T14:32:29;4.40;;;2.60;;
3085;SDS011;52812;48.960;9.108;2022-11-21T14:37:45;6.00;;;2.37;;
3085;SDS011;52812;48.960;9.108;2022-11-21T14:40:11;3.87;;;2.37;;
3085;SDS011;52812;48.960;9.108;2022-11-21T14:42:43;9.83;;;3.00;;
3085;SDS011;52812;48.960;9.108;2022-11-21T14:45:16;4.40;;;2.63;;
3085;SDS011;52812;48.960;9.108;2022-11-21T14:47:50;6.50;;;2.93;;
3085;SDS011;52812;48.960;9.108;2022-11-21T14:50:28;5.17;;;2.43;;
3085;SDS011;52812;48.960;9.108;2022-11-21T14:52:58;5.30;;;2.70;;
3085;SDS011;52812;48.960;9.108;2022-11-21T14:55:29;8.63;;;3.10;;
3085;SDS011;52812;48.960;9.108;2022-11-21T14:57:57;4.80;;;3.33;;
3085;SDS011;52812;48.960;9.108;2022-11-21T15:00:26;5.43;;;3.40;;
3085;SDS011;52812;48.960;9.108;2022-11-21T15:02:54;4.47;;;3.10;;
3085;SDS011;52812;48.960;9.108;2022-11-21T15:05:27;6.00;;;3.10;;
3085;SDS011;52812;48.960;9.108;2022-11-21T15:07:54;4.20;;;2.80;;
3085;SDS011;52812;48.960;9.108;2022-11-21T15:10:21;9.10;;;3.27;;
3085;SDS011;52812;48.960;9.108;2022-11-21T15:12:56;4.90;;;3.00;;
3085;SDS011;52812;48.960;9.108;2022-11-21T15:15:32;8.00;;;4.60;;
3085;SDS011;52812;48.960;9.108;2022-11-21T15:18:00;3.80;;;2.90;;
3085;SDS011;52812;48.960;9.108;2022-11-21T15:20:27;8.67;;;3.07;;
3085;SDS011;52812;48.960;9.108;2022-11-21T15:22:55;4.83;;;2.90;;
3085;SDS011;52812;48.960;9.108;2022-11-21T15:25:23;5.60;;;3.23;;
3085;SDS011;52812;48.960;9.108;2022-11-21T15:27:51;7.10;;;3.40;;
3085;SDS011;52812;48.960;9.108;2022-11-21T15:30:37;6.63;;;3.97;;
3085;SDS011;52812;48.960;9.108;2022-11-21T15:33:08;9.13;;;3.83;;
3085;SDS011;52812;48.960;9.108;2022-11-21T15:41:00;7.13;;;4.10;;
3085;SDS011;52812;48.960;9.108;2022-11-21T15:43:32;7.83;;;4.30;;
3085;SDS011;52812;48.960;9.108;2022-11-21T15:46:15;10.00;;;4.20;;
3085;SDS011;52812;48.960;9.108;2022-11-21T15:49:04;7.00;;;4.23;;
3085;SDS011;52812;48.960;9.108;2022-11-21T15:51:32;6.50;;;4.20;;
3085;SDS011;52812;48.960;9.108;2022-11-21T15:54:00;11.07;;;4.60;;
3085;SDS011;52812;48.960;9.108;2022-11-21T15:56:26;9.67;;;5.00;;
3085;SDS011;52812;48.960;9.108;2022-11-21T15:58:52;6.63;;;4.37;;
3085;SDS011;52812;48.960;9.108;2022-11-21T16:03:44;11.83;;;5.10;;
3085;SDS011;52812;48.960;9.108;2022-11-21T16:06:12;7.93;;;4.93;;
3085;SDS011;52812;48.960;9.108;2022-11-21T16:08:38;9.10;;;5.50;;
3085;SDS011;52812;48.960;9.108;2022-11-21T16:11:03;11.10;;;5.50;;
3085;SDS011;52812;48.960;9.108;2022-11-21T16:13:29;9.90;;;4.80;;
3085;SDS011;52812;48.960;9.108;2022-11-21T16:15:55;10.43;;;4.80;;
3085;SDS011;52812;48.960;9.108;2022-11-21T16:18:23;10.33;;;5.57;;
3085;SDS011;52812;48.960;9.108;2022-11-21T16:20:49;9.73;;;5.70;;
3085;SDS011;52812;48.960;9.108;2022-11-21T16:23:15;9.83;;;6.00;;
3085;SDS011;52812;48.960;9.108;2022-11-21T16:25:52;14.40;;;6.87;;
3085;SDS011;52812;48.960;9.108;2022-11-21T16:28:19;9.77;;;6.03;;
3085;SDS011;52812;48.960;9.108;2022-11-21T16:30:45;9.20;;;5.77;;
3085;SDS011;52812;48.960;9.108;2022-11-21T16:33:10;8.27;;;5.83;;
3085;SDS011;52812;48.960;9.108;2022-11-21T16:35:39;7.53;;;5.70;;
3085;SDS011;52812;48.960;9.108;2022-11-21T16:38:06;14.07;;;6.13;;
3085;SDS011;52812;48.960;9.108;2022-11-21T16:40:32;14.57;;;6.30;;
3085;SDS011;52812;48.960;9.108;2022-11-21T16:43:05;14.00;;;7.97;;
3085;SDS011;52812;48.960;9.108;2022-11-21T16:45:33;13.00;;;8.53;;
3085;SDS011;52812;48.960;9.108;2022-11-21T16:47:59;22.30;;;8.87;;
3085;SDS011;52812;48.960;9.108;2022-11-21T16:50:24;10.73;;;7.03;;
3085;SDS011;52812;48.960;9.108;2022-11-21T16:52:50;12.37;;;6.73;;
3085;SDS011;52812;48.960;9.108;2022-11-21T16:55:16;13.20;;;7.20;;
3085;SDS011;52812;48.960;9.108;2022-11-21T16:57:41;12.93;;;7.63;;
3085;SDS011;52812;48.960;9.108;2022-11-21T17:00:07;13.30;;;7.60;;
3085;SDS011;52812;48.960;9.108;2022-11-21T17:02:36;11.97;;;7.50;;
3085;SDS011;52812;48.960;9.108;2022-11-21T17:05:01;13.37;;;10.20;;
3085;SDS011;52812;48.960;9.108;2022-11-21T17:07:27;12.83;;;8.27;;
3085;SDS011;52812;48.960;9.108;2022-11-21T17:09:55;14.80;;;8.40;;
3085;SDS011;52812;48.960;9.108;2022-11-21T17:12:20;15.00;;;8.30;;
3085;SDS011;52812;48.960;9.108;2022-11-21T17:14:47;13.10;;;8.10;;
3085;SDS011;52812;48.960;9.108;2022-11-21T17:17:13;12.27;;;7.40;;
3085;SDS011;52812;48.960;9.108;2022-11-21T17:19:39;8.10;;;6.27;;
3085;SDS011;52812;48.960;9.108;2022-11-21T17:22:04;9.60;;;7.37;;
3085;SDS011;52812;48.960;9.108;2022-11-21T17:24:30;11.27;;;7.80;;